Prins Christian Sund, Greenland
Current Conditions -  °F | °C
As of 9:50 AM on Friday 28 Nov 2014 (Local Time) from BGBW Reporting Station
Clear Clear  
Wind Chill:   Ceiling: Unl
Heat Index: 12°   Visibility: 6mi
Dew Point: -2°   Wind: 8mph
Humidity: 53%   Direction: 80°E
Pressure: 29.41"   Gusts: NA
Location:  60.05°N, 43.17°W
Report Text: BGBW 281150Z 08007KT 9999 SKC M11/M19 Q0996
Loading
Personal Weather Stations






























Interactive Weather Map New forecast layout! Learn more

10-Day Weather Forecast

Advertisements
Track Severe Weather on mobile